createdAt,value
2017-08-01T00:01:01.056Z,5.77
2017-08-01T00:03:29.505Z,5.97
2017-08-01T00:05:58.378Z,4.80
2017-08-01T00:08:26.799Z,5.53
2017-08-01T00:10:55.630Z,4.80
2017-08-01T00:13:24.127Z,4.30
2017-08-01T00:15:53.329Z,4.00
2017-08-01T00:18:22.151Z,4.70
2017-08-01T00:20:50.642Z,5.50
2017-08-01T00:23:19.460Z,4.37
2017-08-01T00:25:48.654Z,5.30
2017-08-01T00:28:17.946Z,4.53
2017-08-01T00:30:46.416Z,4.60
2017-08-01T00:33:14.935Z,4.40
2017-08-01T00:35:43.353Z,4.87
2017-08-01T00:38:11.811Z,4.03
2017-08-01T00:40:40.749Z,4.23
2017-08-01T00:43:09.203Z,6.30
2017-08-01T00:45:37.704Z,4.70
2017-08-01T00:48:06.127Z,4.60
2017-08-01T00:50:34.559Z,5.03
2017-08-01T00:53:03.532Z,4.60
2017-08-01T00:55:31.972Z,4.20
2017-08-01T00:58:00.786Z,4.83
2017-08-01T01:00:29.249Z,4.80
2017-08-01T01:02:57.721Z,4.83
2017-08-01T01:05:26.205Z,5.00
2017-08-01T01:07:54.639Z,4.33
2017-08-01T01:10:23.105Z,5.07
2017-08-01T01:12:51.592Z,4.47
2017-08-01T01:15:20.787Z,4.13
2017-08-01T01:17:49.223Z,5.17
2017-08-01T01:20:18.111Z,4.80
2017-08-01T01:22:47.369Z,5.77
2017-08-01T01:25:15.812Z,5.63
2017-08-01T01:27:44.632Z,4.40
2017-08-01T01:30:13.591Z,5.60
2017-08-01T01:32:42.095Z,5.53
2017-08-01T01:35:10.432Z,4.83
2017-08-01T01:37:38.973Z,6.37
2017-08-01T01:40:07.136Z,6.27
2017-08-01T01:42:35.627Z,5.70
2017-08-01T01:45:04.549Z,5.00
2017-08-01T01:47:33.387Z,5.53
2017-08-01T01:50:01.501Z,4.90
2017-08-01T01:52:30.035Z,5.83
2017-08-01T01:54:58.904Z,5.57
2017-08-01T01:57:28.096Z,5.00
2017-08-01T01:59:56.573Z,5.00
2017-08-01T02:02:25.008Z,6.70
2017-08-01T02:04:54.196Z,6.53
2017-08-01T02:07:22.689Z,5.33
2017-08-01T02:09:51.125Z,5.13
2017-08-01T02:12:20.337Z,5.00
2017-08-01T02:14:49.205Z,6.33
2017-08-01T02:17:18.403Z,5.60
2017-08-01T02:19:46.831Z,5.43
2017-08-01T02:22:14.959Z,6.07
2017-08-01T02:24:44.167Z,6.80
2017-08-01T02:27:13.399Z,6.90
2017-08-01T02:29:41.830Z,7.07
2017-08-01T02:32:10.300Z,6.97
2017-08-01T02:34:38.795Z,6.20
2017-08-01T02:37:07.235Z,7.20
2017-08-01T02:39:36.104Z,8.93
2017-08-01T02:42:04.547Z,6.67
2017-08-01T02:44:33.750Z,8.27
2017-08-01T02:47:02.232Z,7.20
2017-08-01T02:49:30.680Z,7.80
2017-08-01T02:51:59.121Z,8.53
2017-08-01T02:54:28.015Z,9.70
2017-08-01T02:56:57.216Z,8.93
2017-08-01T02:59:26.048Z,9.87
2017-08-01T03:01:54.521Z,10.60
2017-08-01T03:04:23.378Z,9.27
2017-08-01T03:06:52.267Z,9.20
2017-08-01T03:09:21.106Z,7.73
2017-08-01T03:11:50.315Z,9.10
2017-08-01T03:14:19.801Z,8.87
2017-08-01T03:16:48.247Z,9.83
2017-08-01T03:19:16.717Z,8.00
2017-08-01T03:21:45.561Z,9.77
2017-08-01T03:24:14.397Z,8.27
2017-08-01T03:26:43.289Z,8.37
2017-08-01T03:29:11.555Z,7.00
2017-08-01T03:31:40.625Z,7.83
2017-08-01T03:34:09.101Z,6.93
2017-08-01T03:36:37.531Z,7.97
2017-08-01T03:39:05.629Z,7.90
2017-08-01T03:41:34.134Z,6.90
2017-08-01T03:44:02.552Z,8.37
2017-08-01T03:46:31.416Z,7.40
2017-08-01T03:48:59.909Z,7.70
2017-08-01T03:51:28.327Z,9.37
2017-08-01T03:53:57.196Z,8.00
2017-08-01T03:56:26.392Z,8.23
2017-08-01T03:58:55.249Z,11.60
2017-08-01T04:01:24.071Z,8.90
2017-08-01T04:03:52.885Z,8.60
2017-08-01T04:06:21.773Z,10.20
2017-08-01T04:08:51.528Z,9.53
2017-08-01T04:11:20.005Z,9.30
2017-08-01T04:13:48.455Z,10.97
2017-08-01T04:16:17.665Z,11.00
2017-08-01T04:18:46.141Z,9.90
2017-08-01T04:21:14.973Z,10.33
2017-08-01T04:23:43.442Z,9.03
2017-08-01T04:26:11.882Z,8.50
2017-08-01T04:28:40.704Z,9.43
2017-08-01T04:31:09.601Z,9.00
2017-08-01T04:33:38.149Z,8.83
2017-08-01T04:36:06.558Z,8.23
2017-08-01T04:38:35.051Z,9.47
2017-08-01T04:41:03.532Z,11.07
2017-08-01T04:43:31.952Z,9.20
2017-08-01T04:46:00.214Z,8.63
2017-08-01T04:48:29.663Z,10.40
2017-08-01T04:50:58.082Z,8.77
2017-08-01T04:53:27.321Z,8.13
2017-08-01T04:55:55.760Z,8.17
2017-08-01T04:58:24.280Z,8.60
2017-08-01T05:00:53.492Z,7.60
2017-08-01T05:03:21.938Z,8.23
2017-08-01T05:05:50.429Z,8.30
2017-08-01T05:08:19.635Z,9.10
2017-08-01T05:10:48.065Z,8.13
2017-08-01T05:13:16.615Z,7.40
2017-08-01T05:15:45.808Z,8.70
2017-08-01T05:18:14.241Z,7.90
2017-08-01T05:20:42.925Z,7.13
2017-08-01T05:23:11.366Z,6.70
2017-08-01T05:25:39.790Z,8.90
2017-08-01T05:28:09.035Z,7.73
2017-08-01T05:30:37.471Z,7.37
2017-08-01T05:33:06.619Z,6.00
2017-08-01T05:35:35.082Z,7.17
2017-08-01T05:38:03.501Z,6.57
2017-08-01T05:40:31.982Z,8.93
2017-08-01T05:43:00.413Z,8.63
2017-08-01T05:45:29.248Z,9.07
2017-08-01T05:47:58.475Z,8.30
2017-08-01T05:50:26.233Z,8.03
2017-08-01T05:52:54.821Z,7.07
2017-08-01T05:55:23.301Z,8.50
2017-08-01T05:57:51.740Z,6.80
2017-08-01T06:00:20.270Z,9.20
2017-08-01T06:02:48.692Z,8.33
2017-08-01T06:05:17.585Z,7.33
2017-08-01T06:07:46.009Z,7.27
2017-08-01T06:10:14.431Z,6.87
2017-08-01T06:12:43.314Z,8.00
2017-08-01T06:15:12.372Z,7.20
2017-08-01T06:17:41.688Z,5.63
2017-08-01T06:20:11.243Z,7.33
2017-08-01T06:22:40.103Z,5.40
2017-08-01T06:25:08.584Z,6.90
2017-08-01T06:27:37.787Z,7.20
2017-08-01T06:30:07.035Z,7.37
2017-08-01T06:32:35.463Z,6.90
2017-08-01T06:35:03.894Z,6.37
2017-08-01T06:37:32.380Z,6.67
2017-08-01T06:40:00.867Z,7.47
2017-08-01T06:42:30.070Z,5.83
2017-08-01T06:44:58.548Z,7.00
2017-08-01T06:47:26.967Z,6.53
2017-08-01T06:49:55.395Z,5.47
2017-08-01T06:52:24.642Z,5.60
2017-08-01T06:54:53.116Z,7.00
2017-08-01T06:57:21.588Z,4.67
2017-08-01T06:59:50.025Z,7.70
2017-08-01T07:02:18.486Z,6.97
2017-08-01T07:04:47.360Z,8.53
2017-08-01T07:07:15.844Z,7.10
2017-08-01T07:09:44.297Z,8.10
2017-08-01T07:12:12.798Z,5.97
2017-08-01T07:14:41.234Z,10.33
2017-08-01T07:17:10.055Z,6.73
2017-08-01T07:19:38.550Z,6.67
2017-08-01T07:22:06.982Z,5.33
2017-08-01T07:24:36.928Z,5.20
2017-08-01T07:27:05.394Z,6.30
2017-08-01T07:29:34.215Z,5.20
2017-08-01T07:32:02.657Z,6.23
2017-08-01T07:34:31.917Z,6.47
2017-08-01T07:37:00.355Z,5.17
2017-08-01T07:39:28.776Z,5.40
2017-08-01T07:41:57.329Z,6.00
2017-08-01T07:44:25.787Z,6.63
2017-08-01T07:46:54.980Z,5.37
2017-08-01T07:49:23.465Z,5.53
2017-08-01T07:51:51.915Z,8.23
2017-08-01T07:54:21.129Z,7.30
2017-08-01T07:56:49.993Z,6.47
2017-08-01T07:59:18.452Z,5.93
2017-08-01T08:01:46.935Z,5.97
2017-08-01T08:04:15.381Z,6.20
2017-08-01T08:06:43.829Z,5.37
2017-08-01T08:09:12.312Z,5.73
2017-08-01T08:11:41.140Z,6.07
2017-08-01T08:14:09.622Z,5.70
2017-08-01T08:16:38.440Z,6.60
2017-08-01T08:19:07.348Z,7.03
2017-08-01T08:21:36.549Z,6.63
2017-08-01T08:24:05.003Z,5.80
2017-08-01T08:26:33.503Z,6.20
2017-08-01T08:29:01.951Z,5.37
2017-08-01T08:31:30.372Z,5.67
2017-08-01T08:33:59.630Z,5.27
2017-08-01T08:36:28.784Z,7.30
2017-08-01T08:38:58.257Z,5.77
2017-08-01T08:41:27.097Z,4.93
2017-08-01T08:43:55.977Z,5.50
2017-08-01T08:46:24.430Z,4.90
2017-08-01T08:48:53.634Z,7.17
2017-08-01T08:51:22.499Z,4.90
2017-08-01T08:53:51.716Z,3.27
2017-08-01T08:56:21.317Z,4.60
2017-08-01T08:58:50.799Z,4.67
2017-08-01T09:01:19.645Z,6.13
2017-08-01T09:03:48.486Z,5.40
2017-08-01T09:06:17.257Z,4.90
2017-08-01T09:08:46.852Z,5.77
2017-08-01T09:11:16.057Z,6.67
2017-08-01T09:13:44.485Z,4.40
2017-08-01T09:16:12.927Z,4.83
2017-08-01T09:18:41.435Z,4.37
2017-08-01T09:21:10.274Z,4.90
2017-08-01T09:23:38.765Z,5.20
2017-08-01T09:26:07.235Z,4.73
2017-08-01T09:28:35.723Z,6.00
2017-08-01T09:31:04.913Z,4.53
2017-08-01T09:33:33.325Z,4.07
2017-08-01T09:36:01.807Z,4.50
2017-08-01T09:38:30.252Z,5.07
2017-08-01T09:41:00.839Z,5.90
2017-08-01T09:43:30.768Z,4.07
2017-08-01T09:45:59.627Z,4.87
2017-08-01T09:48:28.455Z,4.43
2017-08-01T09:50:57.281Z,4.63
2017-08-01T09:53:25.788Z,5.30
2017-08-01T09:55:54.641Z,4.73
2017-08-01T09:58:24.651Z,4.40
2017-08-01T10:00:53.898Z,4.80
2017-08-01T10:03:22.379Z,4.37
2017-08-01T10:05:51.249Z,4.13
2017-08-01T10:08:20.575Z,4.40
2017-08-01T10:10:49.763Z,4.70
2017-08-01T10:13:18.204Z,4.20
2017-08-01T10:15:47.079Z,4.13
2017-08-01T10:18:15.509Z,4.73
2017-08-01T10:20:43.940Z,4.07
2017-08-01T10:23:12.398Z,4.00
2017-08-01T10:25:41.683Z,4.07
2017-08-01T10:28:10.883Z,5.57
2017-08-01T10:30:39.312Z,7.23
2017-08-01T10:33:07.832Z,4.97
2017-08-01T10:35:36.286Z,4.50
2017-08-01T10:38:05.117Z,4.20
2017-08-01T10:40:35.383Z,4.87
2017-08-01T10:43:04.224Z,4.43
2017-08-01T10:45:32.670Z,5.37
2017-08-01T10:48:01.543Z,5.33
2017-08-01T10:50:29.982Z,4.40
2017-08-01T10:52:59.186Z,3.77
2017-08-01T10:55:28.073Z,4.90
2017-08-01T10:57:56.977Z,4.73
2017-08-01T11:00:25.920Z,3.80
2017-08-01T11:02:54.378Z,3.70
2017-08-01T11:05:23.210Z,3.87
2017-08-01T11:07:52.072Z,4.73
2017-08-01T11:10:20.550Z,3.73
2017-08-01T11:12:49.740Z,4.00
2017-08-01T11:15:18.177Z,5.40
2017-08-01T11:17:47.050Z,3.77
2017-08-01T11:20:15.510Z,4.17
2017-08-01T11:22:44.719Z,4.60
2017-08-01T11:25:13.195Z,4.83
2017-08-01T11:27:42.477Z,4.97
2017-08-01T11:30:11.668Z,3.90
2017-08-01T11:32:40.116Z,4.53
2017-08-01T11:35:08.587Z,4.97
2017-08-01T11:37:37.022Z,4.23
2017-08-01T11:40:05.902Z,4.70
2017-08-01T11:42:34.375Z,5.03
2017-08-01T11:45:04.004Z,4.83
2017-08-01T11:47:32.853Z,5.43
2017-08-01T11:50:02.818Z,5.07
2017-08-01T11:52:32.069Z,5.70
2017-08-01T11:55:01.314Z,4.17
2017-08-01T11:57:30.507Z,5.80
2017-08-01T11:59:58.779Z,4.70
2017-08-01T12:02:28.058Z,4.60
2017-08-01T12:04:56.587Z,7.30
2017-08-01T12:07:25.414Z,5.40
2017-08-01T12:09:54.649Z,5.67
2017-08-01T12:12:23.484Z,5.80
2017-08-01T12:14:52.724Z,7.33
2017-08-01T12:17:21.204Z,5.60
2017-08-01T12:19:50.463Z,4.90
2017-08-01T12:22:20.035Z,4.27
2017-08-01T12:24:48.480Z,7.30
2017-08-01T12:27:18.472Z,5.37
2017-08-01T12:29:47.300Z,6.17
2017-08-01T12:32:16.177Z,4.63
2017-08-01T12:34:45.735Z,8.73
2017-08-01T12:37:13.929Z,5.03
2017-08-01T12:39:42.435Z,5.60
2017-08-01T12:42:11.265Z,6.00
2017-08-01T12:44:39.740Z,6.60
2017-08-01T12:47:08.569Z,4.60
2017-08-01T12:49:37.392Z,6.10
2017-08-01T12:52:07.406Z,3.97
2017-08-01T12:54:36.056Z,5.80
2017-08-01T12:57:04.896Z,4.90
2017-08-01T12:59:33.368Z,5.77
2017-08-01T13:02:02.209Z,6.00
2017-08-01T13:04:31.058Z,5.10
2017-08-01T13:06:59.941Z,4.83
2017-08-01T13:09:28.780Z,5.30
2017-08-01T13:11:57.612Z,4.90
2017-08-01T13:14:26.107Z,4.80
2017-08-01T13:16:54.546Z,5.13
2017-08-01T13:19:22.967Z,4.30
2017-08-01T13:21:51.845Z,6.80
2017-08-01T13:24:20.730Z,4.47
2017-08-01T13:26:49.571Z,6.00
2017-08-01T13:29:18.052Z,5.13
2017-08-01T13:31:46.955Z,7.10
2017-08-01T13:34:16.156Z,6.23
2017-08-01T13:36:44.988Z,6.03
2017-08-01T13:39:13.421Z,5.30
2017-08-01T13:41:42.236Z,4.90
2017-08-01T13:44:11.093Z,5.63
2017-08-01T13:46:39.547Z,4.53
2017-08-01T13:49:08.848Z,5.33
2017-08-01T13:51:38.099Z,4.03
2017-08-01T13:54:06.549Z,4.60
2017-08-01T13:56:35.022Z,3.90
2017-08-01T13:59:03.448Z,5.53
2017-08-01T14:01:32.713Z,4.40
2017-08-01T14:04:01.173Z,5.63
2017-08-01T14:06:29.993Z,3.87
2017-08-01T14:08:59.643Z,5.27
2017-08-01T14:11:28.861Z,4.50
2017-08-01T14:13:57.733Z,5.53
2017-08-01T14:16:26.990Z,3.70
2017-08-01T14:18:56.097Z,5.03
2017-08-01T14:21:24.968Z,4.30
2017-08-01T14:23:53.460Z,5.53
2017-08-01T14:26:22.665Z,4.50
2017-08-01T14:28:51.584Z,5.43
2017-08-01T14:31:20.409Z,4.93
2017-08-01T14:33:49.680Z,6.87
2017-08-01T14:36:18.127Z,4.37
2017-08-01T14:38:46.996Z,6.97
2017-08-01T14:41:15.828Z,5.60
2017-08-01T14:43:44.273Z,5.00
2017-08-01T14:46:13.899Z,4.83
2017-08-01T14:48:42.328Z,5.33
2017-08-01T14:51:11.215Z,4.30
2017-08-01T14:53:40.050Z,5.47
2017-08-01T14:56:08.873Z,5.57
2017-08-01T14:58:37.728Z,5.20
2017-08-01T15:01:07.286Z,5.37
2017-08-01T15:03:36.160Z,5.50
2017-08-01T15:06:04.992Z,5.30
2017-08-01T15:08:33.826Z,5.60
2017-08-01T15:11:02.737Z,4.87
2017-08-01T15:13:31.180Z,10.93
2017-08-01T15:16:00.363Z,5.37
2017-08-01T15:18:28.851Z,6.50
2017-08-01T15:20:57.296Z,5.40
2017-08-01T15:23:26.125Z,4.90
2017-08-01T15:25:54.592Z,4.40
2017-08-01T15:28:24.173Z,4.07
2017-08-01T15:30:53.414Z,4.70
2017-08-01T15:33:22.996Z,5.57
2017-08-01T15:35:51.259Z,5.50
2017-08-01T15:38:20.114Z,5.13
2017-08-01T15:40:48.552Z,4.90
2017-08-01T15:43:17.839Z,5.50
2017-08-01T15:45:46.285Z,5.43
2017-08-01T15:48:14.783Z,4.93
2017-08-01T15:50:43.622Z,4.97
2017-08-01T15:53:12.094Z,5.13
2017-08-01T15:55:40.590Z,6.20
2017-08-01T15:58:09.044Z,6.07
2017-08-01T16:00:38.252Z,6.43
2017-08-01T16:03:06.741Z,5.30
2017-08-01T16:05:35.180Z,4.77
2017-08-01T16:08:04.423Z,4.83
2017-08-01T16:10:32.896Z,5.40
2017-08-01T16:13:01.324Z,4.77
2017-08-01T16:15:29.824Z,5.60
2017-08-01T16:17:58.686Z,5.17
2017-08-01T16:20:27.163Z,5.27
2017-08-01T16:22:55.625Z,4.57
2017-08-01T16:25:24.064Z,5.53
2017-08-01T16:27:53.597Z,5.00
2017-08-01T16:30:22.841Z,5.00
2017-08-01T16:32:51.337Z,4.50
2017-08-01T16:35:20.212Z,4.30
2017-08-01T16:37:48.656Z,4.73
2017-08-01T16:40:18.286Z,6.00
2017-08-01T16:42:46.715Z,4.30
2017-08-01T16:45:17.247Z,4.80
2017-08-01T16:47:46.127Z,5.40
2017-08-01T16:50:14.554Z,5.07
2017-08-01T16:52:43.003Z,6.00
2017-08-01T16:55:11.569Z,4.80
2017-08-01T16:57:40.006Z,5.67
2017-08-01T17:00:08.847Z,4.77
2017-08-01T17:02:37.740Z,6.97
2017-08-01T17:05:06.970Z,4.17
2017-08-01T17:07:35.416Z,5.70
2017-08-01T17:10:04.327Z,4.17
2017-08-01T17:12:33.533Z,6.17
2017-08-01T17:15:02.372Z,5.80
2017-08-01T17:17:30.860Z,6.27
2017-08-01T17:19:59.680Z,5.90
2017-08-01T17:22:28.720Z,6.47
2017-08-01T17:24:57.194Z,9.03
2017-08-01T17:27:26.397Z,6.50
2017-08-01T17:29:54.845Z,7.17
2017-08-01T17:32:23.336Z,5.43
2017-08-01T17:34:52.176Z,8.57
2017-08-01T17:37:20.606Z,6.13
2017-08-01T17:39:49.839Z,6.90
2017-08-01T17:42:18.289Z,6.33
2017-08-01T17:44:47.606Z,8.53
2017-08-01T17:47:16.038Z,7.90
2017-08-01T17:49:44.969Z,7.73
2017-08-01T17:52:13.847Z,7.07
2017-08-01T17:54:42.336Z,9.13
2017-08-01T17:57:10.773Z,5.50
2017-08-01T17:59:39.961Z,5.63
2017-08-01T18:02:08.421Z,6.17
2017-08-01T18:04:36.851Z,6.63
2017-08-01T18:07:05.711Z,5.93
2017-08-01T18:09:34.581Z,7.00
2017-08-01T18:12:03.402Z,5.33
2017-08-01T18:14:31.837Z,7.47
2017-08-01T18:17:00.341Z,5.63
2017-08-01T18:19:28.876Z,8.17
2017-08-01T18:21:57.400Z,7.23
2017-08-01T18:24:25.880Z,7.90
2017-08-01T18:26:54.326Z,7.70
2017-08-01T18:29:22.904Z,8.00
2017-08-01T18:31:51.732Z,8.37
2017-08-01T18:34:20.160Z,7.93
2017-08-01T18:36:49.032Z,8.33
2017-08-01T18:39:18.134Z,7.27
2017-08-01T18:41:47.487Z,8.50
2017-08-01T18:44:16.049Z,8.33
2017-08-01T18:46:44.481Z,8.80
2017-08-01T18:49:13.017Z,8.40
2017-08-01T18:51:42.046Z,10.30
2017-08-01T18:54:11.564Z,7.27
2017-08-01T18:56:41.449Z,6.63
2017-08-01T18:59:11.011Z,7.30
2017-08-01T19:01:40.306Z,6.70
2017-08-01T19:04:09.135Z,7.73
2017-08-01T19:06:37.996Z,8.13
2017-08-01T19:09:07.297Z,8.60
2017-08-01T19:11:36.590Z,8.93
2017-08-01T19:14:05.326Z,7.97
2017-08-01T19:16:34.610Z,9.37
2017-08-01T19:19:03.857Z,7.27
2017-08-01T19:21:32.292Z,7.90
2017-08-01T19:24:01.492Z,7.23
2017-08-01T19:26:29.970Z,7.33
2017-08-01T19:29:00.198Z,8.53
2017-08-01T19:31:29.396Z,9.30
2017-08-01T19:33:58.143Z,8.73
2017-08-01T19:36:27.671Z,7.57
2017-08-01T19:38:56.225Z,9.17
2017-08-01T19:41:25.720Z,7.53
2017-08-01T19:43:54.217Z,7.37
2017-08-01T19:46:23.696Z,6.50
2017-08-01T19:48:52.459Z,8.27
2017-08-01T19:51:21.755Z,7.10
2017-08-01T19:53:50.887Z,7.60
2017-08-01T19:56:20.202Z,8.00
2017-08-01T19:58:48.945Z,9.80
2017-08-01T20:01:17.972Z,9.90
2017-08-01T20:03:46.464Z,9.37
2017-08-01T20:06:15.204Z,9.47
2017-08-01T20:08:43.742Z,12.13
2017-08-01T20:11:13.030Z,12.80
2017-08-01T20:13:41.808Z,11.80
2017-08-01T20:16:10.350Z,13.20
2017-08-01T20:18:38.805Z,15.80
2017-08-01T20:21:08.809Z,15.57
2017-08-01T20:23:38.090Z,13.77
2017-08-01T20:26:06.732Z,17.77
2017-08-01T20:28:35.723Z,18.93
2017-08-01T20:31:04.161Z,15.77
2017-08-01T20:33:33.003Z,17.40
2017-08-01T20:36:02.254Z,16.27
2017-08-01T20:38:30.723Z,20.90
2017-08-01T20:40:59.610Z,21.73
2017-08-01T20:43:28.528Z,20.13
2017-08-01T20:45:56.979Z,24.17
2017-08-01T20:48:25.423Z,25.47
2017-08-01T20:50:53.897Z,23.37
2017-08-01T20:53:22.328Z,23.90
2017-08-01T20:55:50.843Z,35.00
2017-08-01T20:58:19.683Z,28.97
2017-08-01T21:00:48.125Z,37.80
2017-08-01T21:03:16.615Z,38.70
2017-08-01T21:05:45.085Z,35.43
2017-08-01T21:08:13.516Z,31.87
2017-08-01T21:10:42.024Z,29.50
2017-08-01T21:13:10.495Z,32.90
2017-08-01T21:15:39.693Z,28.13
2017-08-01T21:18:09.296Z,29.40
2017-08-01T21:20:38.726Z,27.70
2017-08-01T21:23:07.963Z,29.63
2017-08-01T21:25:36.398Z,31.17
2017-08-01T21:28:05.222Z,30.83
2017-08-01T21:30:34.098Z,33.07
2017-08-01T21:33:02.574Z,26.77
2017-08-01T21:35:31.242Z,32.97
2017-08-01T21:38:00.484Z,28.77
2017-08-01T21:40:28.981Z,25.43
2017-08-01T21:42:57.429Z,24.90
2017-08-01T21:45:25.870Z,22.73
2017-08-01T21:47:54.363Z,26.00
2017-08-01T21:50:23.569Z,27.20
2017-08-01T21:52:52.020Z,34.37
2017-08-01T21:55:20.927Z,27.70
2017-08-01T21:57:49.393Z,25.20
2017-08-01T22:00:17.578Z,22.60
2017-08-01T22:02:46.836Z,21.37
2017-08-01T22:05:15.277Z,18.90
2017-08-01T22:07:43.712Z,16.47
2017-08-01T22:10:12.185Z,21.70
2017-08-01T22:12:41.017Z,21.23
2017-08-01T22:15:09.484Z,16.97
2017-08-01T22:17:37.962Z,16.00
2017-08-01T22:20:06.388Z,14.40
2017-08-01T22:22:34.881Z,12.10
2017-08-01T22:25:03.346Z,11.77
2017-08-01T22:27:31.826Z,11.43
2017-08-01T22:30:00.297Z,14.80
2017-08-01T22:32:28.768Z,17.00
2017-08-01T22:34:57.574Z,20.47
2017-08-01T22:37:26.025Z,15.43
2017-08-01T22:39:54.860Z,16.03
2017-08-01T22:42:23.331Z,20.10
2017-08-01T22:44:52.167Z,17.20
2017-08-01T22:47:20.643Z,19.20
2017-08-01T22:49:49.522Z,18.30
2017-08-01T22:52:17.986Z,15.63
2017-08-01T22:54:47.232Z,16.03
2017-08-01T22:57:15.678Z,19.50
2017-08-01T22:59:44.133Z,15.07
2017-08-01T23:02:13.364Z,16.23
2017-08-01T23:04:41.805Z,15.87
2017-08-01T23:07:10.250Z,18.67
2017-08-01T23:09:39.508Z,19.43
2017-08-01T23:12:08.408Z,14.70
2017-08-01T23:14:36.837Z,18.60
2017-08-01T23:17:05.270Z,13.60
2017-08-01T23:19:33.747Z,15.00
2017-08-01T23:22:02.659Z,14.77
2017-08-01T23:24:31.154Z,14.13
2017-08-01T23:26:59.982Z,13.57
2017-08-01T23:29:28.422Z,16.80
2017-08-01T23:31:56.880Z,16.50
2017-08-01T23:34:25.337Z,12.73
2017-08-01T23:36:53.804Z,15.53
2017-08-01T23:39:22.232Z,14.33
2017-08-01T23:41:50.662Z,13.43
2017-08-01T23:44:19.113Z,16.17
2017-08-01T23:46:47.570Z,20.43
2017-08-01T23:49:16.059Z,18.57
2017-08-01T23:51:44.488Z,18.47
2017-08-01T23:54:12.913Z,18.20
2017-08-01T23:56:42.153Z,12.93
2017-08-01T23:59:10.970Z,15.00
